createdAt,value
2022-12-01T00:04:48.163Z,43.97
2022-12-01T00:07:14.503Z,37.83
2022-12-01T00:12:07.182Z,46.13
2022-12-01T00:14:33.493Z,30.83
2022-12-01T00:19:27.649Z,37.95
2022-12-01T00:21:54.070Z,35.10
2022-12-01T00:24:20.376Z,37.20
2022-12-01T00:29:12.952Z,36.72
2022-12-01T00:34:10.953Z,31.30
2022-12-01T00:36:38.173Z,38.33
2022-12-01T00:39:04.538Z,38.20
2022-12-01T00:43:57.133Z,47.10
2022-12-01T00:48:49.791Z,39.85
2022-12-01T00:53:42.603Z,24.63
2022-12-01T00:58:35.261Z,34.47
2022-12-01T01:03:29.528Z,30.33
2022-12-01T01:05:56.363Z,24.98
2022-12-01T01:08:22.757Z,30.50
2022-12-01T01:10:49.486Z,37.60
2022-12-01T01:13:15.865Z,26.58
2022-12-01T01:18:08.603Z,18.48
2022-12-01T01:20:34.938Z,51.05
2022-12-01T01:25:27.800Z,35.53
2022-12-01T01:27:54.183Z,52.95
2022-12-01T01:32:47.078Z,43.92
2022-12-01T01:35:13.466Z,62.75
2022-12-01T01:37:39.849Z,55.72
2022-12-01T01:40:06.697Z,62.10
2022-12-01T01:42:33.027Z,45.45
2022-12-01T01:47:30.723Z,31.65
2022-12-01T01:50:01.198Z,30.13
2022-12-01T01:52:28.038Z,49.30
2022-12-01T01:54:55.659Z,46.97
2022-12-01T01:57:31.350Z,47.33
2022-12-01T02:00:04.392Z,40.47
2022-12-01T02:02:30.911Z,44.17
2022-12-01T02:05:01.547Z,48.67
2022-12-01T02:07:28.647Z,41.35
2022-12-01T02:09:56.430Z,45.92
2022-12-01T02:12:44.607Z,47.25
2022-12-01T02:15:29.953Z,43.63
2022-12-01T02:18:14.369Z,53.13
2022-12-01T02:23:47.643Z,43.15
2022-12-01T02:26:29.254Z,55.53
2022-12-01T02:29:31.111Z,51.13
2022-12-01T02:32:17.056Z,49.72
2022-12-01T02:34:52.102Z,48.00
2022-12-01T02:37:35.003Z,47.58
2022-12-01T02:40:14.073Z,48.22
2022-12-01T02:43:12.760Z,46.65
2022-12-01T02:45:50.879Z,47.00
2022-12-01T02:48:31.246Z,28.48
2022-12-01T02:51:02.653Z,37.28
2022-12-01T02:53:29.296Z,46.10
2022-12-01T02:55:58.096Z,40.15
2022-12-01T02:58:24.929Z,33.40
2022-12-01T03:01:06.479Z,41.92
2022-12-01T03:04:31.376Z,24.60
2022-12-01T03:07:18.363Z,44.88
2022-12-01T03:09:50.832Z,44.70
2022-12-01T03:12:22.929Z,43.50
2022-12-01T03:14:58.853Z,45.60
2022-12-01T03:17:31.030Z,42.65
2022-12-01T03:20:05.048Z,42.50
2022-12-01T03:22:41.910Z,45.35
2022-12-01T03:25:11.867Z,46.88
2022-12-01T03:27:44.136Z,46.15
2022-12-01T03:30:17.636Z,50.90
2022-12-01T03:32:48.472Z,46.80
2022-12-01T03:35:23.692Z,44.53
2022-12-01T03:37:54.968Z,34.78
2022-12-01T03:40:25.592Z,40.92
2022-12-01T03:42:59.629Z,40.58
2022-12-01T03:45:39.408Z,45.78
2022-12-01T03:48:06.721Z,50.10
2022-12-01T03:50:45.973Z,38.08
2022-12-01T03:53:24.231Z,50.38
2022-12-01T03:56:02.998Z,37.70
2022-12-01T03:58:37.688Z,46.13
2022-12-01T04:01:05.074Z,46.30
2022-12-01T04:03:31.807Z,53.03
2022-12-01T04:05:58.209Z,46.10
2022-12-01T04:08:24.692Z,51.67
2022-12-01T04:10:51.045Z,46.00
2022-12-01T04:15:44.032Z,53.83
2022-12-01T04:18:10.430Z,56.10
2022-12-01T04:23:03.064Z,58.63
2022-12-01T04:27:55.631Z,35.88
2022-12-01T04:32:48.279Z,40.25
2022-12-01T04:37:40.983Z,38.70
2022-12-01T04:42:34.244Z,55.50
2022-12-01T04:47:26.995Z,57.15
2022-12-01T04:49:53.894Z,55.35
2022-12-01T04:52:20.258Z,66.47
2022-12-01T04:57:12.819Z,52.53
2022-12-01T05:02:05.572Z,47.25
2022-12-01T05:04:32.090Z,52.35
2022-12-01T05:06:58.428Z,60.33
2022-12-01T05:11:51.013Z,58.85
2022-12-01T05:16:43.745Z,59.67
2022-12-01T05:19:10.182Z,54.35
2022-12-01T05:24:02.835Z,47.75
2022-12-01T05:28:55.415Z,48.05
2022-12-01T05:33:48.099Z,52.47
2022-12-01T05:36:14.529Z,63.35
2022-12-01T05:38:40.941Z,61.42
2022-12-01T05:41:07.359Z,57.28
2022-12-01T05:43:33.745Z,62.25
2022-12-01T05:46:00.229Z,54.17
2022-12-01T05:48:26.671Z,66.13
2022-12-01T05:50:53.295Z,67.55
2022-12-01T05:53:19.713Z,63.58
2022-12-01T05:55:46.246Z,52.60
2022-12-01T05:58:13.664Z,62.42
2022-12-01T06:00:45.770Z,58.25
2022-12-01T06:03:13.248Z,58.63
2022-12-01T06:05:39.756Z,65.07
2022-12-01T06:08:06.129Z,69.97
2022-12-01T06:12:58.686Z,65.03
2022-12-01T06:17:51.290Z,61.92
2022-12-01T06:22:43.867Z,63.53
2022-12-01T06:27:36.609Z,60.45
2022-12-01T06:32:30.327Z,63.75
2022-12-01T06:34:56.636Z,63.58
2022-12-01T06:39:49.545Z,62.05
2022-12-01T06:42:16.002Z,59.95
2022-12-01T06:47:08.593Z,60.72
2022-12-01T06:49:34.956Z,59.95
2022-12-01T06:54:27.783Z,62.58
2022-12-01T06:59:20.667Z,60.45
2022-12-01T07:01:47.220Z,59.08
2022-12-01T07:04:13.664Z,64.88
2022-12-01T07:09:06.230Z,46.67
2022-12-01T07:13:58.897Z,46.83
2022-12-01T07:18:51.712Z,62.70
2022-12-01T07:23:44.297Z,50.75
2022-12-01T07:28:42.408Z,53.63
2022-12-01T07:31:17.512Z,59.20
2022-12-01T07:33:43.891Z,62.97
2022-12-01T07:38:38.249Z,59.20
2022-12-01T07:41:06.437Z,57.75
2022-12-01T07:43:33.499Z,55.75
2022-12-01T07:46:05.049Z,63.35
2022-12-01T07:48:32.608Z,59.13
2022-12-01T07:50:58.920Z,63.08
2022-12-01T07:53:25.301Z,66.72
2022-12-01T07:58:17.937Z,54.70
2022-12-01T08:03:10.652Z,54.15
2022-12-01T08:05:37.042Z,59.88
2022-12-01T08:10:29.747Z,63.92
2022-12-01T08:12:56.057Z,55.50
2022-12-01T08:15:22.424Z,52.35
2022-12-01T08:20:18.494Z,60.88
2022-12-01T08:22:48.781Z,57.20
2022-12-01T08:27:41.366Z,62.72
2022-12-01T08:30:08.421Z,53.00
2022-12-01T08:32:34.761Z,64.75
2022-12-01T08:37:27.395Z,70.10
2022-12-01T08:42:20.029Z,59.90
2022-12-01T08:47:17.314Z,60.40
2022-12-01T08:49:45.009Z,64.15
2022-12-01T08:54:37.596Z,59.72
2022-12-01T08:59:30.415Z,53.60
2022-12-01T09:01:56.766Z,54.90
2022-12-01T09:06:52.153Z,53.30
2022-12-01T09:09:24.253Z,55.50
2022-12-01T09:11:50.815Z,58.42
2022-12-01T09:14:17.301Z,57.63
2022-12-01T09:16:46.110Z,48.88
2022-12-01T09:19:14.079Z,48.83
2022-12-01T09:21:41.901Z,55.97
2022-12-01T09:24:10.946Z,39.22
2022-12-01T09:26:37.282Z,46.00
2022-12-01T09:29:06.373Z,52.55
2022-12-01T09:31:33.820Z,52.38
2022-12-01T09:34:02.446Z,42.05
2022-12-01T09:36:30.452Z,48.33
2022-12-01T09:38:57.122Z,43.78
2022-12-01T09:41:34.932Z,34.08
2022-12-01T09:44:03.967Z,55.17
2022-12-01T09:46:40.924Z,43.10
2022-12-01T09:49:17.212Z,38.35
2022-12-01T09:51:43.673Z,48.08
2022-12-01T09:54:13.778Z,32.58
2022-12-01T09:56:45.145Z,61.72
2022-12-01T09:59:20.647Z,47.42
2022-12-01T10:01:52.873Z,60.05
2022-12-01T10:07:04.283Z,46.15
2022-12-01T10:09:46.068Z,59.35
2022-12-01T10:12:18.670Z,46.47
2022-12-01T10:14:46.989Z,42.45
2022-12-01T10:17:42.424Z,60.38
2022-12-01T10:20:17.518Z,60.53
2022-12-01T10:23:08.883Z,53.55
2022-12-01T10:25:58.382Z,50.38
2022-12-01T10:28:52.606Z,57.72
2022-12-01T10:31:52.852Z,65.60
2022-12-01T10:34:29.321Z,58.13
2022-12-01T10:36:56.829Z,62.20
2022-12-01T10:39:44.584Z,57.78
2022-12-01T10:42:26.352Z,65.00
2022-12-01T10:44:54.588Z,65.78
2022-12-01T10:47:24.587Z,59.08
2022-12-01T10:49:52.225Z,59.25
2022-12-01T10:52:36.302Z,55.13
2022-12-01T10:55:06.235Z,54.80
2022-12-01T10:57:32.639Z,53.50
2022-12-01T11:00:06.578Z,60.42
2022-12-01T11:02:33.337Z,52.92
2022-12-01T11:05:20.800Z,52.35
2022-12-01T11:07:48.233Z,40.90
2022-12-01T11:10:25.692Z,49.97
2022-12-01T11:13:16.771Z,34.50
2022-12-01T11:15:58.798Z,51.50
2022-12-01T11:18:27.846Z,38.15
2022-12-01T11:21:05.508Z,36.40
2022-12-01T11:23:32.045Z,46.42
2022-12-01T11:26:26.313Z,49.03
2022-12-01T11:28:56.244Z,55.53
2022-12-01T11:31:35.835Z,46.45
2022-12-01T11:34:02.410Z,46.03
2022-12-01T11:36:35.705Z,41.75
2022-12-01T11:39:02.449Z,47.25
2022-12-01T11:41:40.482Z,41.50
2022-12-01T11:47:25.717Z,54.60
2022-12-01T11:50:00.837Z,59.70
2022-12-01T11:52:33.100Z,42.72
2022-12-01T11:57:49.400Z,41.00
2022-12-01T12:00:22.097Z,53.70
2022-12-01T12:03:13.273Z,31.23
2022-12-01T12:05:52.848Z,43.90
2022-12-01T12:08:48.934Z,39.95
2022-12-01T12:11:19.956Z,49.17
2022-12-01T12:13:59.130Z,51.00
2022-12-01T12:16:38.159Z,39.53
2022-12-01T12:20:06.058Z,42.60
2022-12-01T12:22:33.734Z,26.63
2022-12-01T12:25:21.711Z,43.72
2022-12-01T12:28:34.028Z,33.53
2022-12-01T12:31:19.194Z,39.53
2022-12-01T12:34:17.858Z,54.22
2022-12-01T12:36:51.446Z,47.85
2022-12-01T12:39:29.692Z,46.15
2022-12-01T12:44:23.481Z,50.65
2022-12-01T12:46:52.610Z,43.13
2022-12-01T12:49:32.232Z,37.88
2022-12-01T12:52:35.664Z,50.45
2022-12-01T12:55:13.920Z,57.15
2022-12-01T12:57:51.943Z,48.55
2022-12-01T13:00:25.147Z,45.65
2022-12-01T13:03:02.058Z,52.83
2022-12-01T13:05:36.606Z,53.22
2022-12-01T13:08:11.341Z,56.85
2022-12-01T13:10:46.778Z,51.63
2022-12-01T13:13:37.341Z,44.25
2022-12-01T13:16:07.114Z,46.63
2022-12-01T13:18:49.543Z,43.22
2022-12-01T13:21:22.114Z,56.72
2022-12-01T13:23:51.384Z,51.00
2022-12-01T13:26:20.016Z,43.03
2022-12-01T13:28:51.512Z,31.67
2022-12-01T13:31:19.919Z,39.22
2022-12-01T13:33:57.921Z,46.67
2022-12-01T13:39:21.574Z,45.25
2022-12-01T13:42:07.400Z,37.15
2022-12-01T13:44:38.813Z,40.17
2022-12-01T13:47:32.838Z,47.80
2022-12-01T13:50:37.887Z,40.63
2022-12-01T13:53:12.201Z,27.13
2022-12-01T13:56:03.040Z,45.10
2022-12-01T13:58:32.398Z,46.00
2022-12-01T14:01:21.006Z,50.33
2022-12-01T14:03:57.037Z,36.47
2022-12-01T14:06:37.030Z,32.20
2022-12-01T14:09:16.932Z,25.05
2022-12-01T14:11:56.661Z,42.15
2022-12-01T14:14:26.335Z,36.17
2022-12-01T14:16:58.613Z,53.72
2022-12-01T14:19:49.159Z,39.10
2022-12-01T14:22:33.824Z,48.00
2022-12-01T14:25:01.365Z,38.13
2022-12-01T14:27:36.545Z,29.02
2022-12-01T14:30:40.228Z,31.20
2022-12-01T14:33:44.274Z,41.35
2022-12-01T14:36:35.612Z,38.28
2022-12-01T14:39:15.897Z,40.40
2022-12-01T14:41:49.677Z,42.95
2022-12-01T14:44:37.939Z,36.30
2022-12-01T14:47:10.460Z,26.70
2022-12-01T14:49:47.177Z,39.38
2022-12-01T14:52:24.230Z,39.88
2022-12-01T14:54:51.834Z,41.22
2022-12-01T14:57:24.130Z,44.03
2022-12-01T15:00:12.631Z,40.80
2022-12-01T15:02:46.708Z,39.35
2022-12-01T15:05:16.113Z,49.28
2022-12-01T15:07:45.810Z,49.45
2022-12-01T15:10:18.908Z,49.75
2022-12-01T15:12:45.879Z,51.30
2022-12-01T15:15:24.175Z,44.78
2022-12-01T15:17:52.317Z,54.53
2022-12-01T15:20:31.840Z,47.20
2022-12-01T15:22:58.835Z,49.10
2022-12-01T15:25:28.678Z,33.20
2022-12-01T15:28:19.267Z,48.25
2022-12-01T15:30:49.387Z,45.38
2022-12-01T15:33:35.380Z,48.17
2022-12-01T15:36:03.780Z,51.55
2022-12-01T15:38:35.109Z,52.33
2022-12-01T15:43:59.929Z,45.05
2022-12-01T15:46:32.259Z,47.45
2022-12-01T15:51:48.213Z,48.25
2022-12-01T15:54:33.404Z,46.60
2022-12-01T15:57:00.667Z,53.63
2022-12-01T15:59:43.929Z,50.28
2022-12-01T16:02:25.616Z,50.60
2022-12-01T16:05:02.629Z,54.80
2022-12-01T16:08:10.900Z,48.80
2022-12-01T16:10:34.783Z,51.15
2022-12-01T16:13:38.423Z,46.60
2022-12-01T16:16:39.162Z,54.72
2022-12-01T16:19:11.366Z,50.00
2022-12-01T16:21:53.130Z,49.58
2022-12-01T16:24:33.702Z,56.03
2022-12-01T16:27:03.845Z,52.80
2022-12-01T16:29:43.483Z,51.33
2022-12-01T16:32:20.908Z,50.88
2022-12-01T16:34:48.191Z,51.58
2022-12-01T16:37:15.051Z,55.92
2022-12-01T16:39:41.877Z,48.42
2022-12-01T16:42:12.833Z,48.22
2022-12-01T16:44:39.222Z,55.40
2022-12-01T16:47:18.964Z,52.72
2022-12-01T16:49:45.316Z,50.80
2022-12-01T16:54:58.247Z,54.38
2022-12-01T16:57:24.573Z,47.88
2022-12-01T17:02:17.276Z,52.35
2022-12-01T17:04:43.643Z,46.97
2022-12-01T17:09:36.293Z,52.60
2022-12-01T17:12:02.796Z,50.60
2022-12-01T17:14:29.267Z,49.75
2022-12-01T17:16:57.374Z,51.30
2022-12-01T17:19:23.711Z,49.88
2022-12-01T17:24:19.048Z,48.78
2022-12-01T17:26:45.748Z,52.20
2022-12-01T17:31:38.430Z,44.33
2022-12-01T17:34:04.846Z,43.45
2022-12-01T17:38:57.494Z,40.97
2022-12-01T17:41:23.949Z,43.15
2022-12-01T17:43:50.349Z,48.55
2022-12-01T17:48:45.192Z,43.85
2022-12-01T17:51:13.257Z,39.83
2022-12-01T17:53:39.892Z,40.25
2022-12-01T17:56:10.700Z,39.42
2022-12-01T17:58:37.768Z,40.85
2022-12-01T18:01:05.048Z,45.85
2022-12-01T18:03:31.861Z,42.20
2022-12-01T18:06:00.558Z,43.65
2022-12-01T18:08:29.021Z,42.55
2022-12-01T18:10:55.430Z,46.63
2022-12-01T18:13:22.799Z,44.85
2022-12-01T18:15:49.421Z,46.40
2022-12-01T18:18:15.803Z,49.80
2022-12-01T18:23:11.042Z,43.88
2022-12-01T18:25:38.595Z,48.15
2022-12-01T18:28:05.868Z,52.45
2022-12-01T18:30:35.353Z,55.55
2022-12-01T18:33:01.727Z,51.78
2022-12-01T18:35:31.765Z,45.28
2022-12-01T18:37:58.387Z,54.70
2022-12-01T18:40:24.717Z,57.25
2022-12-01T18:45:21.005Z,53.03
2022-12-01T18:47:47.856Z,52.15
2022-12-01T18:52:40.509Z,71.22
2022-12-01T18:57:33.329Z,93.72
2022-12-01T18:59:59.682Z,95.85
2022-12-01T19:04:52.614Z,81.05
2022-12-01T19:07:19.203Z,74.70
2022-12-01T19:12:11.845Z,61.97
2022-12-01T19:17:04.463Z,55.28
2022-12-01T19:22:03.837Z,51.97
2022-12-01T19:26:56.488Z,61.90
2022-12-01T19:31:49.117Z,64.68
2022-12-01T19:36:41.753Z,66.82
2022-12-01T19:39:08.354Z,61.88
2022-12-01T19:41:34.953Z,62.03
2022-12-01T19:44:01.286Z,71.88
2022-12-01T19:46:27.746Z,74.57
2022-12-01T19:48:59.584Z,64.78
2022-12-01T19:51:28.809Z,69.32
2022-12-01T19:53:55.142Z,66.22
2022-12-01T19:58:48.325Z,60.50
2022-12-01T20:03:44.882Z,64.95
2022-12-01T20:06:14.144Z,71.38
2022-12-01T20:08:40.684Z,70.72
2022-12-01T20:11:07.589Z,67.05
2022-12-01T20:13:35.860Z,67.55
2022-12-01T20:16:03.164Z,66.22
2022-12-01T20:18:29.732Z,67.65
2022-12-01T20:21:08.940Z,60.53
2022-12-01T20:23:35.854Z,68.97
2022-12-01T20:26:04.920Z,58.75
2022-12-01T20:28:32.218Z,63.38
2022-12-01T20:30:59.237Z,61.85
2022-12-01T20:33:27.135Z,69.75
2022-12-01T20:35:53.669Z,63.22
2022-12-01T20:38:27.410Z,62.33
2022-12-01T20:40:54.340Z,55.90
2022-12-01T20:43:20.654Z,57.85
2022-12-01T20:48:14.173Z,57.95
2022-12-01T20:50:40.496Z,53.58
2022-12-01T20:53:07.109Z,67.07
2022-12-01T20:55:35.292Z,53.40
2022-12-01T20:58:01.600Z,63.28
2022-12-01T21:00:28.362Z,60.13
2022-12-01T21:02:54.753Z,65.88
2022-12-01T21:07:47.349Z,64.65
2022-12-01T21:12:51.671Z,63.55
2022-12-01T21:15:26.885Z,71.25
2022-12-01T21:17:56.440Z,63.55
2022-12-01T21:20:28.733Z,66.10
2022-12-01T21:23:00.952Z,69.47
2022-12-01T21:25:27.330Z,58.78
2022-12-01T21:30:23.548Z,69.20
2022-12-01T21:32:50.146Z,70.53
2022-12-01T21:35:20.497Z,70.03
2022-12-01T21:37:48.743Z,68.10
2022-12-01T21:40:23.882Z,57.95
2022-12-01T21:42:50.813Z,67.95
2022-12-01T21:45:29.495Z,60.78
2022-12-01T21:48:06.193Z,56.67
2022-12-01T21:50:32.566Z,59.25
2022-12-01T21:52:58.946Z,64.93
2022-12-01T21:57:53.331Z,51.78
2022-12-01T22:00:28.008Z,63.75
2022-12-01T22:03:09.777Z,49.92
2022-12-01T22:06:01.014Z,60.13
2022-12-01T22:08:34.961Z,52.42
2022-12-01T22:11:11.715Z,60.75
2022-12-01T22:13:37.972Z,68.43
2022-12-01T22:16:04.482Z,50.80
2022-12-01T22:18:39.139Z,42.83
2022-12-01T22:21:23.223Z,69.45
2022-12-01T22:23:59.117Z,72.13
2022-12-01T22:26:25.821Z,60.45
2022-12-01T22:28:58.724Z,60.65
2022-12-01T22:31:25.992Z,68.65
2022-12-01T22:34:02.825Z,62.17
2022-12-01T22:36:31.810Z,66.90
2022-12-01T22:38:58.677Z,69.85
2022-12-01T22:41:26.699Z,62.10
2022-12-01T22:43:59.037Z,77.18
2022-12-01T22:46:32.337Z,66.18
2022-12-01T22:49:13.450Z,67.90
2022-12-01T22:51:41.901Z,65.80
2022-12-01T22:54:14.202Z,71.10
2022-12-01T22:56:49.655Z,67.00
2022-12-01T22:59:20.356Z,61.67
2022-12-01T23:01:52.891Z,69.38
2022-12-01T23:04:49.057Z,64.20
2022-12-01T23:07:29.978Z,61.03
2022-12-01T23:10:11.147Z,59.75
2022-12-01T23:12:38.154Z,61.63
2022-12-01T23:15:34.914Z,56.05
2022-12-01T23:18:21.343Z,53.90
2022-12-01T23:20:50.382Z,50.28
2022-12-01T23:23:20.288Z,59.35
2022-12-01T23:25:49.324Z,69.55
2022-12-01T23:28:15.995Z,68.28
2022-12-01T23:30:44.806Z,60.30
2022-12-01T23:33:25.865Z,56.03
2022-12-01T23:36:21.438Z,57.75
2022-12-01T23:38:51.604Z,56.15
2022-12-01T23:41:33.299Z,52.20
2022-12-01T23:44:32.329Z,59.70
2022-12-01T23:46:58.770Z,52.65
2022-12-01T23:49:29.331Z,39.00
2022-12-01T23:51:59.028Z,50.75
2022-12-01T23:54:28.934Z,39.60
2022-12-01T23:56:57.953Z,47.70
2022-12-01T23:59:25.216Z,49.03
